Terminal Aerodrome Forecast
Issued by NWS Jackson, MS

Home | Current Version | Previous Version | Text Only | Print | Product List | Glossary On
Versions: 1 2 3 4 5 6 7 8 9 10 11 12
253
FTUS44 KMEG 211726
TAFTUP
TAF
KTUP 211726Z 2118/2218 VRB03KT P6SM SCT045
     FM220200 00000KT P6SM FEW250
     FM221600 23004KT P6SM FEW045=

USA.gov is the U.S. government's official web portal to all federal, state and local government web resources and services.